Strona główna
METAR-TAF:

METAR-TAF

Lotnisko :

Kokomo Municipal Airport

Kokomo, Indiana, Stany Zjednoczone

Szerokość geograficzna: 40-32N, Długość geograficzna: 086-04W, wysokość: 253 m

Aktualna obserwacja pogody

Raport powstał 19 minut temu, godzina 12:56 UTC
Wiatr 14 kt od południe w porywach dochodzący do 23 kt
Temperatura 2°C
Wilgotność 100%
Ciśnienie 1011 hPa
Widzialność: 16.1 km
Mało chmury na wysokości 900 ft
Rozproszone chmury na wysokości 1300 ft
Zachmurzenie całkowite na wysokości 2900 ft
słaby deszcz

METAR: KOKK 181256Z AUTO 18014G23KT 10SM -RA FEW009 SCT013 OVC029 02/02 A2985 RMK AO2 SLP117 P0002 T00170017 FZRANO

czas: 08:15 (13:15 UTC)


TAF: brakujący

Obserwacja i prognoza pogody dla ponad 4000 lotnisk (raport METAR i TAF).

Dostępne stacje oznaczono żółtymi i czerwonymi punktami na mapie.

Najedź kursorem aby zobaczyć nazwę stacji.

Kliknij aby zobaczyć obserwacje i prognozy pogody.

Aby zmienić mapę: kliknij na zielony przycisk z czarnym krzyżykiem, aby powiększyć; na zielony przycisk z myślnikiem, aby pomniejszyć; na zielone strzałki, aby przejść do map sąsiednich.


METAR-TAF: